Time;durP1;ratioP1;P1;durP2;ratioP2;P2;SDS_P1;SDS_P2;PMS_P1;PMS_P2;Temp;Humidity;BMP_temperature;BMP_pressure;BME280_temperature;BME280_humidity;BME280_pressure;Samples;Min_cycle;Max_cycle;Signal;HPM_P1;HPM_P2
2022/12/22 03:28:08;;;;;;;41.90;7.47;;;;;;;;;;6268224;22;20461;-62
2022/12/22 03:30:42;;;;;;;51.10;7.60;;;;;;;;;;6268901;22;20022;-62
2022/12/22 03:33:09;;;;;;;56.10;9.25;;;;;;;;;;6270379;22;20526;-62
2022/12/22 03:35:43;;;;;;;51.13;8.90;;;;;;;;;;6269071;22;20031;-61
2022/12/22 03:38:10;;;;;;;49.72;9.60;;;;;;;;;;6270462;22;20194;-62
2022/12/22 03:40:38;;;;;;;68.38;8.45;;;;;;;;;;6269462;22;20102;-61
2022/12/22 03:51:37;;;;;;;46.03;8.23;;;;;;;;;;6268649;22;20147;-62
2022/12/22 03:54:12;;;;;;;58.90;9.15;;;;;;;;;;6270844;22;20468;-61
2022/12/22 03:56:39;;;;;;;50.30;8.65;;;;;;;;;;6268996;22;20023;-61
2022/12/22 03:59:06;;;;;;;53.15;8.73;;;;;;;;;;6270274;22;20398;-48
2022/12/22 04:01:44;;;;;;;51.50;8.38;;;;;;;;;;6269369;22;20026;-61
2022/12/22 04:04:13;;;;;;;37.28;7.18;;;;;;;;;;6269055;22;20531;-61
2022/12/22 04:06:47;;;;;;;63.88;8.18;;;;;;;;;;6269212;22;20095;-61
2022/12/22 04:09:14;;;;;;;49.20;8.45;;;;;;;;;;6268679;22;20019;-61
2022/12/22 04:14:34;;;;;;;48.60;7.35;;;;;;;;;;6268956;22;20023;-61
2022/12/22 04:17:03;;;;;;;55.10;7.93;;;;;;;;;;6267240;22;20102;-63
2022/12/22 04:19:44;;;;;;;61.75;8.63;;;;;;;;;;6270190;22;20099;-61
2022/12/22 04:22:11;;;;;;;41.50;7.35;;;;;;;;;;6269698;22;20098;-64
2022/12/22 04:24:45;;;;;;;49.10;8.02;;;;;;;;;;6268015;22;20034;-61
2022/12/22 04:27:12;;;;;;;42.65;7.78;;;;;;;;;;6267643;22;20019;-61
2022/12/22 04:29:39;;;;;;;53.63;8.35;;;;;;;;;;6268628;22;20538;-62
2022/12/22 04:32:13;;;;;;;55.03;7.78;;;;;;;;;;6269264;22;20095;-61
2022/12/22 04:34:40;;;;;;;54.05;9.40;;;;;;;;;;6269289;22;20020;-62
2022/12/22 04:37:14;;;;;;;55.10;8.40;;;;;;;;;;6268202;22;20115;-63
2022/12/22 04:39:43;;;;;;;63.53;8.85;;;;;;;;;;6268683;22;20019;-50
2022/12/22 04:42:11;;;;;;;51.08;7.07;;;;;;;;;;6267852;22;20822;-50
2022/12/22 04:44:44;;;;;;;55.10;8.13;;;;;;;;;;6268696;22;20408;-49
2022/12/22 04:47:11;;;;;;;44.42;7.70;;;;;;;;;;6268207;22;20087;-50
2022/12/22 04:49:38;;;;;;;46.47;7.03;;;;;;;;;;6268320;22;20512;-48
2022/12/22 04:52:12;;;;;;;39.25;7.13;;;;;;;;;;6268145;22;20098;-53
2022/12/22 04:54:39;;;;;;;66.05;6.55;;;;;;;;;;6270559;22;20055;-53
2022/12/22 04:57:13;;;;;;;44.55;7.40;;;;;;;;;;6266839;22;20539;-60
2022/12/22 04:59:40;;;;;;;50.53;8.00;;;;;;;;;;6269298;22;20016;-61
2022/12/22 05:02:14;;;;;;;62.30;8.15;;;;;;;;;;6266022;22;20066;-60
2022/12/22 05:04:41;;;;;;;54.05;8.52;;;;;;;;;;6268286;22;20454;-61
2022/12/22 05:07:08;;;;;;;42.78;6.55;;;;;;;;;;6269469;22;20027;-61
2022/12/22 05:09:42;;;;;;;42.95;7.82;;;;;;;;;;6269428;22;20033;-61
2022/12/22 05:12:55;;;;;;;40.33;7.97;;;;;;;;;;6268663;22;20055;-62
2022/12/22 05:15:03;;;;;;;47.17;8.32;;;;;;;;;;6256467;22;20016;-59
2022/12/22 05:17:37;;;;;;;48.50;8.88;;;;;;;;;;6266700;22;20027;-54
2022/12/22 05:20:10;;;;;;;44.38;6.90;;;;;;;;;;6267398;22;20107;-53
2022/12/22 05:22:37;;;;;;;45.58;9.38;;;;;;;;;;6269175;22;20023;-54
2022/12/22 05:25:05;;;;;;;42.05;6.43;;;;;;;;;;6266190;22;20024;-55
2022/12/22 05:27:39;;;;;;;52.00;7.47;;;;;;;;;;6268249;22;20020;-52
2022/12/22 05:30:06;;;;;;;42.60;7.07;;;;;;;;;;6267274;22;20738;-63
2022/12/22 05:32:40;;;;;;;38.00;7.00;;;;;;;;;;6268552;22;20409;-59
2022/12/22 05:35:07;;;;;;;52.47;7.93;;;;;;;;;;6267043;22;20090;-59
2022/12/22 05:37:35;;;;;;;37.10;7.03;;;;;;;;;;6267306;22;20504;-60
2022/12/22 05:40:15;;;;;;;46.28;7.88;;;;;;;;;;6266840;22;20034;-60
2022/12/22 05:42:42;;;;;;;43.80;7.45;;;;;;;;;;6266555;22;20081;-61
2022/12/22 05:45:17;;;;;;;55.15;7.82;;;;;;;;;;6265953;22;20035;-59
2022/12/22 05:47:45;;;;;;;69.68;9.48;;;;;;;;;;6266423;22;20073;-57
2022/12/22 05:50:14;;;;;;;40.47;8.80;;;;;;;;;;6266838;22;20130;-64
2022/12/22 05:52:47;;;;;;;47.97;8.98;;;;;;;;;;6267656;22;20471;-62
2022/12/22 05:55:14;;;;;;;42.88;9.00;;;;;;;;;;6267484;22;20030;-61
2022/12/22 05:57:48;;;;;;;44.03;8.88;;;;;;;;;;6266639;22;20111;-62
2022/12/22 06:00:16;;;;;;;60.05;9.40;;;;;;;;;;6267425;22;20692;-63
2022/12/22 06:02:50;;;;;;;51.53;8.95;;;;;;;;;;6264742;22;20364;-61
2022/12/22 06:05:17;;;;;;;53.55;9.75;;;;;;;;;;6265991;22;20433;-62
2022/12/22 06:07:44;;;;;;;55.28;8.20;;;;;;;;;;6268510;22;20059;-62
2022/12/22 06:10:18;;;;;;;48.08;10.50;;;;;;;;;;6271499;22;20412;-60
2022/12/22 06:12:45;;;;;;;45.63;10.45;;;;;;;;;;6270945;22;20107;-60
2022/12/22 06:15:19;;;;;;;43.05;8.98;;;;;;;;;;6272168;22;20026;-59
2022/12/22 06:17:59;;;;;;;53.25;10.60;;;;;;;;;;6269823;22;20098;-58
2022/12/22 06:20:33;;;;;;;56.83;11.10;;;;;;;;;;6269144;22;20063;-58
2022/12/22 06:23:00;;;;;;;60.40;11.07;;;;;;;;;;6271312;22;20031;-59
2022/12/22 06:25:27;;;;;;;51.55;12.93;;;;;;;;;;6271194;22;20443;-64
2022/12/22 06:28:01;;;;;;;47.08;11.35;;;;;;;;;;6269735;22;20026;-62
2022/12/22 06:30:28;;;;;;;46.38;9.93;;;;;;;;;;6271804;22;20062;-60
2022/12/22 06:33:02;;;;;;;52.88;10.70;;;;;;;;;;6270493;22;20026;-60
2022/12/22 06:35:29;;;;;;;47.05;10.30;;;;;;;;;;6270937;22;20047;-60
2022/12/22 06:37:56;;;;;;;48.60;12.13;;;;;;;;;;6270448;22;20091;-59
2022/12/22 06:40:30;;;;;;;43.00;11.73;;;;;;;;;;6270330;22;20066;-58
2022/12/22 06:43:09;;;;;;;41.90;12.10;;;;;;;;;;6270069;22;20335;-59
2022/12/22 06:45:44;;;;;;;51.10;12.02;;;;;;;;;;6271914;22;20031;-61
2022/12/22 06:48:12;;;;;;;59.78;14.13;;;;;;;;;;6242598;22;20090;-62
2022/12/22 06:50:39;;;;;;;62.10;13.38;;;;;;;;;;6271698;22;20095;-61
2022/12/22 06:53:13;;;;;;;61.50;12.00;;;;;;;;;;6270053;22;20449;-61
2022/12/22 06:55:40;;;;;;;61.92;14.40;;;;;;;;;;6270601;22;20030;-61
2022/12/22 06:58:14;;;;;;;58.63;15.05;;;;;;;;;;6268759;22;20022;-61
2022/12/22 07:00:42;;;;;;;71.53;15.88;;;;;;;;;;6269661;22;20107;-62
2022/12/22 07:03:09;;;;;;;57.83;14.68;;;;;;;;;;6269382;22;20020;-61
2022/12/22 07:05:43;;;;;;;67.38;14.80;;;;;;;;;;6268657;22;20526;-59
2022/12/22 07:08:10;;;;;;;56.95;14.80;;;;;;;;;;6269716;22;20020;-59
2022/12/22 07:10:59;;;;;;;66.38;14.90;;;;;;;;;;6269928;22;20102;-59
2022/12/22 07:13:27;;;;;;;58.13;14.65;;;;;;;;;;6270612;22;20019;-59
2022/12/22 07:16:02;;;;;;;56.95;13.75;;;;;;;;;;6269659;22;20068;-60
2022/12/22 07:18:44;;;;;;;61.50;14.43;;;;;;;;;;6266861;22;20026;-60
2022/12/22 07:21:18;;;;;;;37.00;12.02;;;;;;;;;;6268376;22;20038;-54
2022/12/22 07:23:52;;;;;;;46.95;12.75;;;;;;;;;;6269470;22;20098;-61
2022/12/22 07:26:19;;;;;;;64.38;13.30;;;;;;;;;;6243147;22;20069;-61
2022/12/22 07:28:46;;;;;;;41.22;12.77;;;;;;;;;;6268833;22;20106;-61
2022/12/22 07:31:20;;;;;;;59.05;13.98;;;;;;;;;;6268734;22;20069;-61
2022/12/22 07:33:47;;;;;;;53.38;14.38;;;;;;;;;;6268992;22;20020;-61
2022/12/22 07:36:21;;;;;;;45.67;13.55;;;;;;;;;;6269996;22;20103;-62
2022/12/22 07:38:48;;;;;;;;;;;;;;;;;;6270613;22;20026;-61
2022/12/22 07:44:09;;;;;;;58.90;17.20;;;;;;;;;;6268681;22;20094;-62
2022/12/22 07:46:43;;;;;;;67.72;16.80;;;;;;;;;;6269740;22;20023;-62
2022/12/22 07:52:03;;;;;;;65.18;17.42;;;;;;;;;;6268117;22;20086;-61
2022/12/22 07:54:30;;;;;;;71.32;18.88;;;;;;;;;;6266560;22;20055;-62
2022/12/22 07:57:08;;;;;;;68.22;17.67;;;;;;;;;;6267689;22;20023;-59
2022/12/22 07:59:35;;;;;;;55.60;15.27;;;;;;;;;;6268755;22;20024;-60
2022/12/22 08:02:02;;;;;;;69.55;17.52;;;;;;;;;;6269494;22;20031;-49
2022/12/22 08:04:36;;;;;;;61.83;17.27;;;;;;;;;;6269170;22;20518;-48
2022/12/22 08:07:03;;;;;;;65.93;17.67;;;;;;;;;;6268551;22;20019;-50
2022/12/22 08:09:37;;;;;;;62.03;17.35;;;;;;;;;;6267910;22;20029;-50
2022/12/22 08:12:04;;;;;;;63.25;15.77;;;;;;;;;;6268630;22;20537;-48
2022/12/22 08:14:31;;;;;;;72.95;17.40;;;;;;;;;;6269505;22;20396;-48
2022/12/22 08:17:05;;;;;;;64.03;16.90;;;;;;;;;;6267394;22;20024;-63
2022/12/22 08:19:39;;;;;;;64.50;16.42;;;;;;;;;;6268383;22;20456;-48
2022/12/22 08:22:13;;;;;;;60.55;14.43;;;;;;;;;;6269080;22;20879;-49
2022/12/22 08:24:40;;;;;;;47.15;13.73;;;;;;;;;;6267721;22;20166;-49
2022/12/22 08:27:10;;;;;;;53.15;14.40;;;;;;;;;;6242542;22;20091;-54
2022/12/22 08:29:55;;;;;;;55.47;13.70;;;;;;;;;;6268849;22;20020;-48
2022/12/22 08:32:22;;;;;;;56.85;13.82;;;;;;;;;;6268795;22;20051;-50
2022/12/22 08:34:56;;;;;;;68.03;13.70;;;;;;;;;;6268924;22;20094;-61
2022/12/22 08:37:24;;;;;;;59.55;13.20;;;;;;;;;;6267251;22;20016;-47
2022/12/22 08:40:01;;;;;;;56.42;13.52;;;;;;;;;;6268800;22;20038;-48
2022/12/22 08:42:28;;;;;;;52.40;13.27;;;;;;;;;;6269219;22;20032;-49
2022/12/22 08:44:55;;;;;;;61.13;13.82;;;;;;;;;;6267684;22;20059;-53
2022/12/22 08:47:29;;;;;;;48.92;12.57;;;;;;;;;;6269003;22;20032;-49
2022/12/22 08:49:56;;;;;;;50.25;12.63;;;;;;;;;;6267973;22;20031;-51
2022/12/22 08:52:30;;;;;;;46.25;13.38;;;;;;;;;;6268070;22;20059;-61
2022/12/22 08:54:57;;;;;;;;;;;;;;;;;;6270032;22;20050;-63
2022/12/22 08:57:24;;;;;;;45.80;12.55;;;;;;;;;;6269960;22;19915;-62
2022/12/22 08:59:58;;;;;;;51.50;12.05;;;;;;;;;;6266680;22;20107;-62
2022/12/22 09:02:25;;;;;;;55.53;12.75;;;;;;;;;;6269688;22;20058;-62
2022/12/22 09:04:59;;;;;;;44.05;12.63;;;;;;;;;;6268654;22;20032;-62
2022/12/22 09:07:26;;;;;;;52.17;13.93;;;;;;;;;;6267968;22;20038;-62
2022/12/22 09:09:54;;;;;;;62.22;13.50;;;;;;;;;;6269502;22;20015;-63
2022/12/22 09:12:27;;;;;;;56.92;13.15;;;;;;;;;;6269630;22;20527;-62
2022/12/22 09:14:54;;;;;;;55.67;13.68;;;;;;;;;;6267284;22;20540;-62
2022/12/22 09:17:35;;;;;;;54.78;14.70;;;;;;;;;;6268833;22;20043;-62
2022/12/22 09:20:09;;;;;;;60.75;13.48;;;;;;;;;;6270241;22;20095;-62
2022/12/22 09:22:43;;;;;;;50.53;13.07;;;;;;;;;;6268476;22;20539;-62
2022/12/22 09:25:10;;;;;;;65.20;13.68;;;;;;;;;;6269116;22;20019;-62
2022/12/22 09:27:37;;;;;;;47.83;13.75;;;;;;;;;;6270368;22;20050;-62
2022/12/22 09:30:12;;;;;;;52.42;13.07;;;;;;;;;;6266912;22;20431;-55
2022/12/22 09:32:39;;;;;;;54.70;13.85;;;;;;;;;;6268447;22;20523;-56
2022/12/22 09:35:13;;;;;;;63.33;13.52;;;;;;;;;;6267953;22;20028;-56
2022/12/22 09:37:40;;;;;;;58.72;12.40;;;;;;;;;;6268211;22;20055;-57
2022/12/22 09:40:08;;;;;;;60.22;12.70;;;;;;;;;;6268185;22;20498;-49
2022/12/22 09:42:41;;;;;;;63.53;13.10;;;;;;;;;;6268761;22;20135;-47
2022/12/22 09:45:18;;;;;;;62.85;13.13;;;;;;;;;;6269726;22;20026;-50
2022/12/22 09:47:53;;;;;;;50.75;11.55;;;;;;;;;;6270151;22;20034;-48
2022/12/22 09:50:22;;;;;;;45.60;12.05;;;;;;;;;;6270834;22;20026;-62
2022/12/22 09:52:52;;;;;;;47.67;12.57;;;;;;;;;;6269685;22;20022;-62
2022/12/22 09:55:26;;;;;;;60.38;13.18;;;;;;;;;;6270747;22;20106;-61
2022/12/22 09:58:00;;;;;;;43.47;12.48;;;;;;;;;;6269934;22;20415;-61
2022/12/22 10:00:35;;;;;;;45.13;12.35;;;;;;;;;;6270439;22;20026;-61
2022/12/22 10:03:21;;;;;;;46.30;11.50;;;;;;;;;;6270086;22;20445;-62
2022/12/22 10:06:07;;;;;;;33.03;10.07;;;;;;;;;;6269924;22;20124;-62
2022/12/22 10:08:41;;;;;;;37.17;9.10;;;;;;;;;;6269233;22;20058;-62
2022/12/22 10:11:12;;;;;;;32.75;10.00;;;;;;;;;;6270986;22;20472;-63
2022/12/22 10:13:46;;;;;;;47.10;9.63;;;;;;;;;;6269750;22;20066;-63
2022/12/22 10:16:31;;;;;;;43.13;10.25;;;;;;;;;;6269649;22;20024;-62
2022/12/22 10:19:12;;;;;;;44.90;11.13;;;;;;;;;;6269075;22;20026;-63
2022/12/22 10:21:41;;;;;;;42.65;11.25;;;;;;;;;;6269959;22;20034;-63
2022/12/22 10:24:35;;;;;;;30.20;10.40;;;;;;;;;;6270201;22;20560;-64
2022/12/22 10:27:03;;;;;;;35.97;10.98;;;;;;;;;;6270432;22;20054;-53
2022/12/22 10:29:37;;;;;;;45.10;10.82;;;;;;;;;;6270166;22;20058;-51
2022/12/22 10:32:11;;;;;;;59.78;12.20;;;;;;;;;;6270574;22;20398;-49
2022/12/22 10:34:58;;;;;;;44.45;11.95;;;;;;;;;;6271468;22;20070;-48
2022/12/22 10:37:36;;;;;;;56.42;14.68;;;;;;;;;;6269841;22;20835;-49
2022/12/22 10:40:20;;;;;;;49.35;13.18;;;;;;;;;;6270670;22;20073;-50
2022/12/22 10:42:56;;;;;;;54.90;14.57;;;;;;;;;;6271313;22;20026;-61
2022/12/22 10:45:26;;;;;;;51.28;15.07;;;;;;;;;;6270147;22;20026;-64
2022/12/22 10:47:55;;;;;;;68.13;16.23;;;;;;;;;;6270451;22;20074;-50
2022/12/22 10:50:29;;;;;;;49.50;15.80;;;;;;;;;;6271631;22;20062;-47
2022/12/22 10:52:57;;;;;;;57.42;15.15;;;;;;;;;;6270063;22;20015;-50
2022/12/22 10:55:34;;;;;;;54.53;15.25;;;;;;;;;;6270057;22;20027;-49
2022/12/22 10:58:10;;;;;;;72.88;15.85;;;;;;;;;;6269908;22;20016;-52
2022/12/22 11:00:44;;;;;;;63.78;14.90;;;;;;;;;;6270883;22;20043;-49
2022/12/22 11:03:13;;;;;;;;;;;;;;;;;;6269273;22;20105;-64
2022/12/22 11:05:46;;;;;;;46.75;11.65;;;;;;;;;;6269543;22;20325;-61
2022/12/22 11:08:20;;;;;;;52.03;13.95;;;;;;;;;;6244868;22;20102;-61
2022/12/22 11:10:51;;;;;;;47.97;14.27;;;;;;;;;;6270438;22;20099;-61
2022/12/22 11:13:25;;;;;;;47.45;14.85;;;;;;;;;;6267899;22;20026;-61
2022/12/22 11:16:02;;;;;;;67.10;15.90;;;;;;;;;;6269655;22;20484;-62
2022/12/22 11:18:44;;;;;;;47.65;12.38;;;;;;;;;;6267854;22;20038;-61
2022/12/22 11:21:27;;;;;;;46.45;13.00;;;;;;;;;;6270159;22;20023;-63
2022/12/22 11:24:09;;;;;;;51.05;13.48;;;;;;;;;;6269081;22;20633;-61
2022/12/22 11:26:37;;;;;;;38.30;13.20;;;;;;;;;;6269609;22;20016;-61
2022/12/22 11:29:22;;;;;;;49.05;12.73;;;;;;;;;;6268832;22;20070;-61
2022/12/22 11:31:54;;;;;;;44.45;13.25;;;;;;;;;;6270267;22;20207;-61
2022/12/22 11:34:38;;;;;;;44.75;13.05;;;;;;;;;;6270258;22;20035;-61
2022/12/22 11:37:31;;;;;;;60.97;14.25;;;;;;;;;;6268466;22;20423;-61
2022/12/22 11:40:27;;;;;;;58.90;13.88;;;;;;;;;;6269826;22;20020;-59
2022/12/22 11:43:20;;;;;;;49.97;13.55;;;;;;;;;;6268595;22;20348;-61
2022/12/22 11:46:12;;;;;;;43.63;12.18;;;;;;;;;;6270825;22;20431;-61
2022/12/22 11:48:39;;;;;;;55.72;13.93;;;;;;;;;;6270305;22;20032;-62
2022/12/22 11:51:20;;;;;;;51.85;14.23;;;;;;;;;;6270272;22;20034;-61
2022/12/22 11:53:54;;;;;;;55.55;12.63;;;;;;;;;;6270820;22;20055;-62
2022/12/22 11:56:38;;;;;;;46.63;12.25;;;;;;;;;;6270116;22;20081;-62
2022/12/22 11:59:24;;;;;;;48.58;13.45;;;;;;;;;;6269209;22;20031;-64
2022/12/22 12:02:17;;;;;;;55.47;14.10;;;;;;;;;;6268570;22;20440;-63
2022/12/22 12:04:47;;;;;;;48.05;12.80;;;;;;;;;;6270442;22;20019;-63
2022/12/22 12:07:27;;;;;;;39.35;11.88;;;;;;;;;;6268411;22;20646;-63
2022/12/22 12:09:54;;;;;;;52.67;12.95;;;;;;;;;;6269139;22;20016;-62
2022/12/22 12:12:43;;;;;;;54.58;14.30;;;;;;;;;;6268986;22;20069;-63
2022/12/22 12:15:17;;;;;;;56.55;13.93;;;;;;;;;;6268824;22;20095;-62
2022/12/22 12:18:18;;;;;;;43.75;11.82;;;;;;;;;;6269548;22;20055;-47
2022/12/22 12:21:07;;;;;;;50.92;12.60;;;;;;;;;;6268653;22;20020;-52
2022/12/22 12:23:41;;;;;;;51.78;12.45;;;;;;;;;;6268977;22;20062;-50
2022/12/22 12:26:15;;;;;;;50.20;13.27;;;;;;;;;;6267916;22;20473;-47
2022/12/22 12:28:58;;;;;;;51.55;14.25;;;;;;;;;;6268568;22;20035;-48
2022/12/22 12:31:29;;;;;;;56.10;15.00;;;;;;;;;;6269786;22;20020;-52
2022/12/22 12:34:03;;;;;;;74.43;14.40;;;;;;;;;;6267648;22;20027;-62
2022/12/22 12:36:45;;;;;;;63.67;15.50;;;;;;;;;;6269089;22;20561;-60
2022/12/22 12:39:26;;;;;;;65.88;14.65;;;;;;;;;;6269232;22;20102;-59
2022/12/22 12:41:53;;;;;;;54.25;14.10;;;;;;;;;;6267018;22;20107;-59
2022/12/22 12:44:29;;;;;;;67.10;15.45;;;;;;;;;;6267640;22;20031;-60
2022/12/22 12:47:03;;;;;;;58.17;14.52;;;;;;;;;;6268921;22;20070;-60
2022/12/22 12:49:36;;;;;;;76.85;14.25;;;;;;;;;;6267582;22;20396;-60
2022/12/22 12:52:06;;;;;;;81.90;15.88;;;;;;;;;;6269243;22;20027;-51
2022/12/22 12:54:33;;;;;;;62.70;15.80;;;;;;;;;;6267797;22;20108;-62
2022/12/22 12:57:07;;;;;;;66.63;15.63;;;;;;;;;;6268886;22;20026;-63
2022/12/22 12:59:41;;;;;;;61.83;15.68;;;;;;;;;;6270035;22;20023;-62
2022/12/22 13:02:41;;;;;;;51.03;14.32;;;;;;;;;;6268840;22;20035;-62
2022/12/22 13:05:28;;;;;;;70.07;16.58;;;;;;;;;;6268513;22;20047;-63
2022/12/22 13:08:06;;;;;;;56.38;13.60;;;;;;;;;;6268687;22;20070;-63
2022/12/22 13:10:42;;;;;;;56.45;13.60;;;;;;;;;;6267411;22;20054;-64
2022/12/22 13:13:10;;;;;;;44.92;12.98;;;;;;;;;;6268345;22;20020;-62
2022/12/22 13:15:39;;;;;;;59.30;14.05;;;;;;;;;;6269721;22;20059;-61
2022/12/22 13:18:27;;;;;;;61.50;13.68;;;;;;;;;;6267441;22;20078;-62
2022/12/22 13:21:13;;;;;;;66.47;15.75;;;;;;;;;;6267517;22;20485;-62
2022/12/22 13:24:05;;;;;;;60.22;13.40;;;;;;;;;;6269067;22;20026;-62
2022/12/22 13:26:59;;;;;;;50.47;13.15;;;;;;;;;;6268267;22;20078;-62
2022/12/22 13:29:41;;;;;;;54.75;15.00;;;;;;;;;;6269767;22;20055;-52
2022/12/22 13:32:23;;;;;;;54.75;14.07;;;;;;;;;;6269271;22;20567;-61
2022/12/22 13:34:57;;;;;;;53.35;13.68;;;;;;;;;;6270310;22;20130;-61
2022/12/22 13:37:52;;;;;;;63.65;13.73;;;;;;;;;;6269816;22;20477;-61
2022/12/22 13:40:24;;;;;;;64.68;14.48;;;;;;;;;;6268170;22;20019;-60
2022/12/22 13:43:01;;;;;;;70.07;15.00;;;;;;;;;;6268488;22;20019;-60
2022/12/22 13:45:34;;;;;;;58.80;14.73;;;;;;;;;;6267784;22;20317;-61
2022/12/22 13:48:20;;;;;;;75.47;15.38;;;;;;;;;;6269360;22;20019;-55
2022/12/22 13:50:52;;;;;;;71.88;16.40;;;;;;;;;;6268012;22;20031;-54
2022/12/22 13:53:29;;;;;;;66.38;14.18;;;;;;;;;;6268276;22;20095;-49
2022/12/22 13:56:40;;;;;;;59.80;14.30;;;;;;;;;;6267490;22;20020;-47
2022/12/22 13:59:34;;;;;;;64.07;13.23;;;;;;;;;;6264236;22;20516;-48
2022/12/22 14:02:08;;;;;;;66.38;14.10;;;;;;;;;;6268785;22;20059;-48
2022/12/22 14:04:44;;;;;;;75.05;15.20;;;;;;;;;;6268303;22;20469;-47
2022/12/22 14:07:19;;;;;;;57.97;13.68;;;;;;;;;;6268922;22;20028;-53
2022/12/22 14:09:55;;;;;;;71.47;14.35;;;;;;;;;;6268469;22;20015;-53
2022/12/22 14:12:23;;;;;;;64.25;15.13;;;;;;;;;;6268785;22;20404;-47
2022/12/22 14:14:51;;;;;;;62.03;14.80;;;;;;;;;;6268851;22;20410;-49
2022/12/22 14:17:27;;;;;;;71.22;14.43;;;;;;;;;;6267569;22;20059;-47
2022/12/22 14:20:25;;;;;;;66.53;15.48;;;;;;;;;;6267489;22;20031;-46
2022/12/22 14:23:13;;;;;;;65.00;14.75;;;;;;;;;;6269978;22;20024;-46
2022/12/22 14:25:47;;;;;;;75.78;15.73;;;;;;;;;;6268077;22;20264;-64
2022/12/22 14:28:21;;;;;;;55.97;14.00;;;;;;;;;;6269488;22;20536;-61
2022/12/22 14:30:59;;;;;;;66.20;14.32;;;;;;;;;;6271376;22;20050;-61
2022/12/22 14:33:33;;;;;;;48.55;12.68;;;;;;;;;;6269905;22;20020;-60
2022/12/22 14:36:19;;;;;;;62.70;14.02;;;;;;;;;;6269682;22;20019;-61
2022/12/22 14:38:56;;;;;;;60.92;13.00;;;;;;;;;;6269707;22;20020;-61
2022/12/22 14:41:43;;;;;;;58.92;13.32;;;;;;;;;;6269899;22;20100;-62
2022/12/22 14:44:14;;;;;;;61.33;13.55;;;;;;;;;;6269046;22;20178;-58
2022/12/22 14:47:07;;;;;;;68.47;14.18;;;;;;;;;;6268780;22;20024;-64
2022/12/22 14:49:42;;;;;;;70.60;14.50;;;;;;;;;;6269897;22;20020;-63
2022/12/22 14:52:31;;;;;;;64.25;14.35;;;;;;;;;;6269759;22;20413;-64
2022/12/22 14:54:59;;;;;;;67.90;15.05;;;;;;;;;;6268711;22;20462;-63
2022/12/22 14:57:37;;;;;;;58.88;15.93;;;;;;;;;;6267658;22;20020;-64
2022/12/22 15:00:06;;;;;;;62.78;17.10;;;;;;;;;;6268218;22;20098;-47
2022/12/22 15:02:48;;;;;;;62.40;16.10;;;;;;;;;;6269542;22;20027;-61
2022/12/22 15:05:24;;;;;;;55.35;15.05;;;;;;;;;;6268819;22;20430;-61
2022/12/22 15:07:57;;;;;;;67.75;16.95;;;;;;;;;;6268847;22;20034;-61
2022/12/22 15:10:40;;;;;;;67.50;15.13;;;;;;;;;;6269049;22;20024;-60
2022/12/22 15:13:20;;;;;;;66.72;15.98;;;;;;;;;;6268395;22;20063;-60
2022/12/22 15:15:49;;;;;;;66.30;16.42;;;;;;;;;;6268996;22;20028;-61
2022/12/22 15:18:27;;;;;;;80.20;17.83;;;;;;;;;;6267558;22;20030;-59
2022/12/22 15:21:01;;;;;;;73.25;15.65;;;;;;;;;;6267717;22;20023;-61
2022/12/22 15:23:35;;;;;;;71.22;16.50;;;;;;;;;;6269213;22;20280;-58
2022/12/22 15:26:02;;;;;;;51.92;14.10;;;;;;;;;;6268632;22;20103;-59
2022/12/22 15:28:30;;;;;;;78.72;17.40;;;;;;;;;;6267905;22;20402;-57
2022/12/22 15:31:04;;;;;;;66.13;15.80;;;;;;;;;;6269303;22;20094;-58
2022/12/22 15:33:31;;;;;;;59.53;15.32;;;;;;;;;;6241352;22;20492;-56
2022/12/22 15:36:06;;;;;;;60.75;15.05;;;;;;;;;;6269503;22;20438;-59
2022/12/22 15:38:33;;;;;;;66.45;14.73;;;;;;;;;;6267834;22;20127;-51
2022/12/22 15:41:05;;;;;;;77.57;15.68;;;;;;;;;;6268435;22;20027;-48
2022/12/22 15:43:39;;;;;;;60.88;14.30;;;;;;;;;;6269998;22;20024;-51
2022/12/22 15:46:25;;;;;;;58.95;12.80;;;;;;;;;;6268128;22;20051;-55
2022/12/22 15:48:58;;;;;;;65.28;14.55;;;;;;;;;;6268444;22;20392;-55
2022/12/22 15:51:27;;;;;;;51.33;14.02;;;;;;;;;;6269393;22;20096;-54
2022/12/22 15:53:55;;;;;;;54.92;14.13;;;;;;;;;;6267111;22;20102;-50
2022/12/22 15:56:32;;;;;;;52.97;14.73;;;;;;;;;;6268147;22;20094;-54
2022/12/22 15:59:00;;;;;;;54.50;12.60;;;;;;;;;;6268349;22;20094;-55
2022/12/22 16:01:34;;;;;;;62.20;14.75;;;;;;;;;;6265373;22;20128;-51
2022/12/22 16:04:01;;;;;;;61.60;15.45;;;;;;;;;;6268362;22;20461;-48
2022/12/22 16:06:30;;;;;;;52.60;13.10;;;;;;;;;;6267015;22;20023;-51
2022/12/22 16:09:06;;;;;;;54.55;12.38;;;;;;;;;;6268260;22;20091;-47
2022/12/22 16:11:33;;;;;;;48.92;13.27;;;;;;;;;;6267260;22;20020;-47
2022/12/22 16:14:00;;;;;;;67.35;14.13;;;;;;;;;;6268595;22;20099;-50
2022/12/22 16:16:34;;;;;;;63.65;12.57;;;;;;;;;;6268638;22;20500;-62
2022/12/22 16:19:08;;;;;;;61.85;13.07;;;;;;;;;;6268226;22;20465;-61
2022/12/22 16:21:51;;;;;;;55.17;13.63;;;;;;;;;;6269556;22;20055;-61
2022/12/22 16:24:29;;;;;;;55.47;12.80;;;;;;;;;;6268349;22;20023;-61
2022/12/22 16:27:02;;;;;;;56.90;12.38;;;;;;;;;;6267702;22;20026;-61
2022/12/22 16:29:29;;;;;;;61.38;13.25;;;;;;;;;;6266575;22;20360;-61
2022/12/22 16:32:15;;;;;;;40.35;12.48;;;;;;;;;;6266093;22;20404;-63
2022/12/22 16:34:49;;;;;;;46.63;12.57;;;;;;;;;;6267149;22;20488;-59
2022/12/22 16:37:23;;;;;;;40.65;10.88;;;;;;;;;;6265428;22;20094;-63
2022/12/22 16:39:50;;;;;;;53.75;13.20;;;;;;;;;;6264783;22;20626;-64
2022/12/22 16:42:24;;;;;;;36.92;9.25;;;;;;;;;;6242776;22;20030;-64
2022/12/22 16:45:16;;;;;;;42.88;11.18;;;;;;;;;;6267915;22;20078;-64
2022/12/22 16:47:51;;;;;;;62.60;27.75;;;;;;;;;;6268486;22;20054;-64
2022/12/22 16:50:20;;;;;;;52.10;12.30;;;;;;;;;;6267399;22;20027;-62
2022/12/22 16:52:48;;;;;;;56.63;25.70;;;;;;;;;;6269579;22;20107;-62
2022/12/22 16:55:22;;;;;;;55.38;12.45;;;;;;;;;;6266816;22;20364;-64
2022/12/22 16:57:49;;;;;;;43.30;13.13;;;;;;;;;;6268609;22;20130;-64
2022/12/22 17:00:25;;;;;;;50.55;10.43;;;;;;;;;;6266887;22;20055;-63
2022/12/22 17:03:03;;;;;;;37.70;9.68;;;;;;;;;;6267878;22;20047;-63
2022/12/22 17:05:39;;;;;;;38.22;8.10;;;;;;;;;;6268247;22;20081;-63
2022/12/22 17:08:24;;;;;;;67.88;27.05;;;;;;;;;;6264391;22;20054;-64
2022/12/22 17:10:59;;;;;;;41.17;9.75;;;;;;;;;;6264522;22;20027;-50
2022/12/22 17:13:36;;;;;;;53.70;10.23;;;;;;;;;;6265967;22;20039;-62
2022/12/22 17:16:21;;;;;;;46.00;9.80;;;;;;;;;;6264754;22;20489;-62
2022/12/22 17:18:48;;;;;;;38.95;11.20;;;;;;;;;;6263608;22;20082;-62
2022/12/22 17:21:29;;;;;;;53.55;10.00;;;;;;;;;;6264871;22;20034;-61
2022/12/22 17:24:02;;;;;;;48.72;9.95;;;;;;;;;;6264554;22;20051;-62
2022/12/22 17:26:36;;;;;;;44.88;8.45;;;;;;;;;;6264190;22;20019;-61
2022/12/22 17:29:03;;;;;;;46.70;8.57;;;;;;;;;;6264961;22;20126;-50
2022/12/22 17:31:33;;;;;;;41.15;10.45;;;;;;;;;;6264051;22;20023;-62
2022/12/22 17:34:16;;;;;;;54.75;10.85;;;;;;;;;;6264259;22;20404;-62
2022/12/22 17:36:45;;;;;;;36.92;8.57;;;;;;;;;;6265312;22;20444;-62
2022/12/22 17:39:20;;;;;;;43.33;11.05;;;;;;;;;;6262810;22;20023;-62
2022/12/22 17:41:47;;;;;;;43.78;11.43;;;;;;;;;;6265957;22;20540;-62
2022/12/22 17:44:23;;;;;;;42.00;9.40;;;;;;;;;;6264525;22;20035;-62
2022/12/22 17:46:57;;;;;;;37.58;9.02;;;;;;;;;;6266029;22;20032;-61
2022/12/22 17:49:24;;;;;;;32.92;8.70;;;;;;;;;;6265396;22;20103;-62
2022/12/22 17:51:58;;;;;;;42.40;7.78;;;;;;;;;;6264059;22;20058;-61
2022/12/22 17:54:26;;;;;;;41.53;8.45;;;;;;;;;;6263828;22;20111;-61
2022/12/22 17:56:57;;;;;;;36.92;8.75;;;;;;;;;;6265309;22;20023;-61
2022/12/22 17:59:31;;;;;;;41.63;8.05;;;;;;;;;;6266601;22;20499;-61
2022/12/22 18:02:00;;;;;;;35.45;7.68;;;;;;;;;;6264114;22;20098;-61
2022/12/22 18:04:33;;;;;;;32.65;7.57;;;;;;;;;;6265566;22;20027;-58
2022/12/22 18:07:00;;;;;;;29.35;7.15;;;;;;;;;;6268227;22;20101;-53
2022/12/22 18:09:27;;;;;;;39.15;6.93;;;;;;;;;;6266634;22;20047;-48
2022/12/22 18:12:01;;;;;;;33.83;7.13;;;;;;;;;;6266607;22;20055;-51
2022/12/22 18:14:28;;;;;;;28.25;6.22;;;;;;;;;;6267022;22;20463;-49
2022/12/22 18:17:02;;;;;;;27.02;6.20;;;;;;;;;;6266566;22;20051;-47
2022/12/22 18:19:42;;;;;;;26.50;5.88;;;;;;;;;;6264963;22;20108;-50
2022/12/22 18:22:17;;;;;;;26.20;6.10;;;;;;;;;;6266113;22;20124;-63
2022/12/22 18:24:44;;;;;;;22.25;5.95;;;;;;;;;;6264968;22;20030;-61
2022/12/22 18:27:12;;;;;;;29.63;5.95;;;;;;;;;;6264497;22;20073;-61
2022/12/22 18:29:46;;;;;;;33.08;5.75;;;;;;;;;;6266481;22;20050;-60
2022/12/22 18:32:14;;;;;;;22.77;5.68;;;;;;;;;;6266916;22;20111;-60
2022/12/22 18:34:54;;;;;;;29.25;5.75;;;;;;;;;;6267490;22;20028;-61
2022/12/22 18:37:21;;;;;;;37.30;4.82;;;;;;;;;;6265198;22;20092;-60
2022/12/22 18:39:48;;;;;;;25.95;4.57;;;;;;;;;;6264321;22;20028;-61
2022/12/22 18:42:23;;;;;;;27.42;5.00;;;;;;;;;;6266420;22;20065;-61
2022/12/22 18:44:50;;;;;;;22.88;4.68;;;;;;;;;;6265171;22;20053;-61